Time;durP1;ratioP1;P1;durP2;ratioP2;P2;SDS_P1;SDS_P2;PMS_P1;PMS_P2;Temp;Humidity;BMP_temperature;BMP_pressure;BME280_temperature;BME280_humidity;BME280_pressure;Samples;Min_cycle;Max_cycle;Signal;HPM_P1;HPM_P2
2022/09/26 00:01:14;;;;;;;10.00;3.30;;;;;;;;;;5033959;28;20036;-69
2022/09/26 00:03:42;;;;;;;12.93;3.58;;;;;;;;;;5040532;28;20032;-68
2022/09/26 00:06:09;;;;;;;14.50;4.47;;;;;;;;;;5037407;28;20430;-69
2022/09/26 00:08:36;;;;;;;11.10;3.00;;;;;;;;;;5033662;28;20162;-70
2022/09/26 00:11:03;;;;;;;13.50;3.15;;;;;;;;;;5042038;28;20040;-69
2022/09/26 00:13:30;;;;;;;14.23;2.88;;;;;;;;;;5035709;28;20497;-70
2022/09/26 00:15:57;;;;;;;11.90;2.80;;;;;;;;;;5038992;28;20051;-69
2022/09/26 00:18:23;;;;;;;8.80;2.60;;;;;;;;;;5035193;28;20055;-69
2022/09/26 00:20:50;;;;;;;8.68;2.20;;;;;;;;;;5038571;28;20123;-69
2022/09/26 00:23:16;;;;;;;10.55;2.40;;;;;;;;;;5034825;28;20067;-70
2022/09/26 00:25:50;;;;;;;10.63;2.63;;;;;;;;;;5039055;28;20028;-70
2022/09/26 00:28:17;;;;;;;10.90;3.20;;;;;;;;;;5034695;28;20399;-70
2022/09/26 00:30:43;;;;;;;10.02;2.80;;;;;;;;;;5039656;28;20052;-70
2022/09/26 00:33:09;;;;;;;;;;;;;;;;;;5034753;28;20650;-69
2022/09/26 00:35:35;;;;;;;12.55;2.40;;;;;;;;;;5033457;28;19920;-69
2022/09/26 00:38:01;;;;;;;;;;;;;;;;;;5036920;28;20032;-70
2022/09/26 00:40:29;;;;;;;12.38;2.80;;;;;;;;;;5032772;28;20364;-69
2022/09/26 00:42:55;;;;;;;9.20;2.50;;;;;;;;;;5036334;28;20538;-69
2022/09/26 00:45:23;;;;;;;10.13;2.30;;;;;;;;;;5034601;28;20039;-69
2022/09/26 00:47:57;;;;;;;10.30;2.28;;;;;;;;;;5037167;28;20600;-69
2022/09/26 00:50:43;;;;;;;10.40;2.40;;;;;;;;;;5034004;28;20060;-69
2022/09/26 00:53:12;;;;;;;7.75;2.38;;;;;;;;;;5037656;28;20024;-69
2022/09/26 00:55:40;;;;;;;8.27;2.30;;;;;;;;;;5037979;28;20518;-69
2022/09/26 00:58:09;;;;;;;9.90;2.50;;;;;;;;;;5039233;28;20025;-69
2022/09/26 01:00:35;;;;;;;13.80;2.75;;;;;;;;;;5036329;28;20083;-70
2022/09/26 01:03:02;;;;;;;9.30;2.28;;;;;;;;;;5038367;28;20032;-69
2022/09/26 01:05:28;;;;;;;13.38;3.05;;;;;;;;;;5033211;28;20541;-69
2022/09/26 01:07:55;;;;;;;;;;;;;;;;;;5038242;28;20673;-69
2022/09/26 01:10:21;;;;;;;13.15;2.53;;;;;;;;;;5034301;28;20138;-69
2022/09/26 01:12:47;;;;;;;8.88;2.47;;;;;;;;;;5037867;28;20243;-69
2022/09/26 01:15:13;;;;;;;7.45;1.98;;;;;;;;;;5037963;28;20433;-69
2022/09/26 01:17:39;;;;;;;;;;;;;;;;;;5044456;28;20113;-69
2022/09/26 01:20:16;;;;;;;9.30;2.42;;;;;;;;;;5043972;28;19924;-69
2022/09/26 01:23:01;;;;;;;12.32;2.63;;;;;;;;;;5044729;28;20032;-70
2022/09/26 01:25:46;;;;;;;11.68;2.30;;;;;;;;;;5036928;28;20028;-69
2022/09/26 01:28:29;;;;;;;9.68;2.60;;;;;;;;;;5038629;28;20091;-69
2022/09/26 01:31:01;;;;;;;10.57;2.65;;;;;;;;;;5042346;28;20064;-69
2022/09/26 01:33:46;;;;;;;8.95;2.33;;;;;;;;;;5037701;28;20047;-70
2022/09/26 01:36:30;;;;;;;8.77;2.25;;;;;;;;;;5040153;28;20040;-69
2022/09/26 01:39:08;;;;;;;9.10;2.30;;;;;;;;;;5042007;28;20040;-69
2022/09/26 01:41:50;;;;;;;7.45;2.22;;;;;;;;;;5037651;28;20511;-69
2022/09/26 01:44:28;;;;;;;8.63;1.90;;;;;;;;;;5040082;28;20141;-69
2022/09/26 01:46:57;;;;;;;10.25;2.20;;;;;;;;;;5043214;28;20105;-70
2022/09/26 01:49:31;;;;;;;10.35;2.47;;;;;;;;;;5037832;28;20487;-69
2022/09/26 01:52:18;;;;;;;12.27;2.15;;;;;;;;;;5044182;28;20044;-69
2022/09/26 01:54:44;;;;;;;12.20;2.20;;;;;;;;;;5043646;28;20031;-69
2022/09/26 01:57:14;;;;;;;9.30;1.75;;;;;;;;;;5040461;28;20070;-69
2022/09/26 01:59:43;;;;;;;10.35;2.53;;;;;;;;;;5038386;28;20037;-69
2022/09/26 02:02:12;;;;;;;9.30;2.10;;;;;;;;;;5037422;28;20036;-68
2022/09/26 02:04:40;;;;;;;8.43;2.17;;;;;;;;;;5041330;28;20366;-69
2022/09/26 02:07:06;;;;;;;6.47;1.85;;;;;;;;;;5044967;28;20032;-68
2022/09/26 02:09:37;;;;;;;8.90;2.00;;;;;;;;;;5040623;28;20028;-68
2022/09/26 02:12:05;;;;;;;11.77;1.80;;;;;;;;;;5044199;28;20032;-69
2022/09/26 02:14:34;;;;;;;12.23;2.30;;;;;;;;;;5041090;28;20064;-69
2022/09/26 02:17:21;;;;;;;8.93;2.00;;;;;;;;;;5046154;28;20580;-68
2022/09/26 02:19:51;;;;;;;10.25;2.25;;;;;;;;;;5037058;28;20536;-68
2022/09/26 02:22:18;;;;;;;8.70;1.95;;;;;;;;;;5033608;28;20536;-70
2022/09/26 02:24:44;;;;;;;9.52;1.90;;;;;;;;;;5046395;28;20037;-69
2022/09/26 02:27:10;;;;;;;9.77;1.80;;;;;;;;;;5041976;28;20024;-68
2022/09/26 02:29:38;;;;;;;9.95;2.10;;;;;;;;;;5041783;28;20035;-68
2022/09/26 02:32:11;;;;;;;7.68;1.77;;;;;;;;;;5041571;28;20090;-68
2022/09/26 02:34:38;;;;;;;9.80;1.98;;;;;;;;;;5042419;28;20748;-68
2022/09/26 02:37:04;;;;;;;8.05;1.75;;;;;;;;;;5040676;28;20118;-68
2022/09/26 02:39:30;;;;;;;9.02;1.90;;;;;;;;;;5038545;28;22091;-69
2022/09/26 02:42:00;;;;;;;8.63;2.00;;;;;;;;;;5045104;28;20124;-69
2022/09/26 02:44:29;;;;;;;9.15;1.70;;;;;;;;;;5038176;28;20035;-69
2022/09/26 02:47:08;;;;;;;10.02;2.00;;;;;;;;;;5042540;28;20044;-69
2022/09/26 02:49:45;;;;;;;10.32;1.65;;;;;;;;;;5036385;28;20063;-69
2022/09/26 02:52:26;;;;;;;10.20;2.10;;;;;;;;;;5039935;28;20111;-68
2022/09/26 02:54:58;;;;;;;11.80;2.40;;;;;;;;;;5043847;28;20037;-69
2022/09/26 02:57:30;;;;;;;12.30;2.20;;;;;;;;;;5040196;28;20032;-69
2022/09/26 02:59:56;;;;;;;12.30;2.40;;;;;;;;;;5043713;28;20762;-69
2022/09/26 03:02:41;;;;;;;13.35;2.33;;;;;;;;;;5039283;28;20604;-69
2022/09/26 03:05:19;;;;;;;10.13;2.08;;;;;;;;;;5042182;28;20041;-70
2022/09/26 03:07:48;;;;;;;9.75;2.25;;;;;;;;;;5042350;28;20028;-69
2022/09/26 03:10:14;;;;;;;10.77;2.00;;;;;;;;;;5040954;28;20093;-69
2022/09/26 03:12:43;;;;;;;11.48;2.10;;;;;;;;;;5045720;28;20025;-69
2022/09/26 03:15:11;;;;;;;13.82;2.13;;;;;;;;;;5046706;28;20031;-69
2022/09/26 03:17:39;;;;;;;10.48;2.40;;;;;;;;;;5041911;28;20044;-69
2022/09/26 03:20:17;;;;;;;11.30;2.63;;;;;;;;;;5044935;28;20358;-70
2022/09/26 03:22:43;;;;;;;17.27;2.60;;;;;;;;;;5043658;28;20028;-69
2022/09/26 03:25:11;;;;;;;12.23;2.60;;;;;;;;;;5043029;28;20036;-69
2022/09/26 03:27:38;;;;;;;9.77;2.10;;;;;;;;;;5044116;28;20467;-69
2022/09/26 03:30:05;;;;;;;13.63;2.20;;;;;;;;;;5045606;28;20036;-70
2022/09/26 03:32:31;;;;;;;8.57;2.00;;;;;;;;;;5043067;28;20106;-69
2022/09/26 03:34:57;;;;;;;;;;;;;;;;;;5036329;28;20557;-69
2022/09/26 03:37:23;;;;;;;10.70;2.05;;;;;;;;;;5039276;28;19919;-69
2022/09/26 03:39:49;;;;;;;10.18;2.08;;;;;;;;;;5042390;28;20032;-69
2022/09/26 03:42:15;;;;;;;;;;;;;;;;;;5040314;28;20115;-69
2022/09/26 03:44:42;;;;;;;9.85;2.10;;;;;;;;;;5039493;28;19924;-68
2022/09/26 03:47:09;;;;;;;12.98;2.38;;;;;;;;;;5041074;28;20062;-69
2022/09/26 03:49:35;;;;;;;10.88;2.15;;;;;;;;;;5036494;28;20025;-69
2022/09/26 03:52:01;;;;;;;13.68;2.40;;;;;;;;;;5039095;28;20433;-68
2022/09/26 03:54:29;;;;;;;16.52;2.00;;;;;;;;;;5036444;28;20055;-69
2022/09/26 03:56:55;;;;;;;13.27;2.70;;;;;;;;;;5043473;28;20415;-69
2022/09/26 03:59:21;;;;;;;9.50;2.33;;;;;;;;;;5039469;28;20123;-68
2022/09/26 04:01:47;;;;;;;;;;;;;;;;;;5041946;28;20135;-70
2022/09/26 04:04:15;;;;;;;12.43;2.92;;;;;;;;;;5037307;28;19935;-70
2022/09/26 04:06:43;;;;;;;11.10;2.53;;;;;;;;;;5043287;28;20393;-69
2022/09/26 04:09:10;;;;;;;10.55;2.47;;;;;;;;;;5042649;28;20021;-69
2022/09/26 04:11:36;;;;;;;11.63;2.85;;;;;;;;;;5038681;28;20593;-69
2022/09/26 04:14:02;;;;;;;;;;;;;;;;;;5044233;28;20036;-70
2022/09/26 04:16:28;;;;;;;11.65;2.55;;;;;;;;;;5037736;28;20278;-70
2022/09/26 04:18:57;;;;;;;13.13;2.60;;;;;;;;;;5042108;28;20052;-70
2022/09/26 04:21:25;;;;;;;8.93;2.47;;;;;;;;;;5038797;28;20347;-70
2022/09/26 04:23:52;;;;;;;12.07;2.40;;;;;;;;;;5034998;28;20037;-69
2022/09/26 04:26:19;;;;;;;12.38;2.10;;;;;;;;;;5038887;28;20290;-69
2022/09/26 04:28:45;;;;;;;9.85;2.30;;;;;;;;;;5041589;28;20064;-69
2022/09/26 04:31:12;;;;;;;11.48;2.60;;;;;;;;;;5038148;28;21474;-69
2022/09/26 04:33:39;;;;;;;11.85;2.17;;;;;;;;;;5040104;28;20025;-69
2022/09/26 04:36:06;;;;;;;9.75;2.35;;;;;;;;;;5043807;28;20032;-69
2022/09/26 04:38:33;;;;;;;9.15;2.20;;;;;;;;;;5040198;28;20507;-69
2022/09/26 04:41:18;;;;;;;9.80;2.08;;;;;;;;;;5041927;28;20127;-69
2022/09/26 04:43:44;;;;;;;9.23;2.10;;;;;;;;;;5041949;28;20033;-70
2022/09/26 04:46:10;;;;;;;;;;;;;;;;;;5039891;28;20045;-69
2022/09/26 04:48:36;;;;;;;10.60;2.47;;;;;;;;;;5039077;28;20203;-69
2022/09/26 04:51:02;;;;;;;;;;;;;;;;;;5040516;28;20093;-70
2022/09/26 04:53:28;;;;;;;13.73;2.55;;;;;;;;;;5038511;28;19913;-69
2022/09/26 04:55:54;;;;;;;12.88;2.85;;;;;;;;;;5042513;28;20543;-69
2022/09/26 04:58:20;;;;;;;;;;;;;;;;;;5041010;28;20059;-69
2022/09/26 05:00:48;;;;;;;12.40;2.60;;;;;;;;;;5040269;28;19912;-69
2022/09/26 05:03:15;;;;;;;13.43;2.47;;;;;;;;;;5039354;28;20020;-70
2022/09/26 05:05:42;;;;;;;9.27;2.60;;;;;;;;;;5042667;28;20142;-70
2022/09/26 05:08:09;;;;;;;10.75;2.58;;;;;;;;;;5042389;28;20698;-69
2022/09/26 05:10:35;;;;;;;11.50;2.20;;;;;;;;;;5034984;28;20028;-70
2022/09/26 05:13:02;;;;;;;12.35;2.17;;;;;;;;;;5039465;28;20494;-68
2022/09/26 05:15:28;;;;;;;12.88;2.13;;;;;;;;;;5036483;28;20020;-70
2022/09/26 05:17:58;;;;;;;14.43;2.33;;;;;;;;;;5040299;28;20051;-68
2022/09/26 05:20:28;;;;;;;10.48;2.25;;;;;;;;;;5036237;28;20028;-68
2022/09/26 05:23:01;;;;;;;11.75;2.30;;;;;;;;;;5040163;28;20655;-68
2022/09/26 05:28:13;;;;;;;17.47;2.40;;;;;;;;;;5043144;28;20560;-68
2022/09/26 05:30:39;;;;;;;14.98;2.67;;;;;;;;;;5032924;28;20394;-68
2022/09/26 05:33:05;;;;;;;;;;;;;;;;;;5042750;28;20029;-69
2022/09/26 05:35:34;;;;;;;13.55;2.75;;;;;;;;;;5041533;28;21005;-69
2022/09/26 05:38:01;;;;;;;13.40;2.97;;;;;;;;;;5041241;28;20029;-69
2022/09/26 05:43:12;;;;;;;12.82;2.58;;;;;;;;;;5038018;28;20182;-70
2022/09/26 05:45:38;;;;;;;;;;;;;;;;;;5041951;28;20360;-70
2022/09/26 05:48:05;;;;;;;12.98;3.05;;;;;;;;;;5041281;28;20351;-69
2022/09/26 05:50:31;;;;;;;11.60;2.60;;;;;;;;;;5037373;28;20025;-69
2022/09/26 05:52:58;;;;;;;11.55;2.70;;;;;;;;;;5039820;28;20117;-69
2022/09/26 05:55:25;;;;;;;11.07;2.58;;;;;;;;;;5037278;28;20024;-69
2022/09/26 05:57:51;;;;;;;9.63;2.53;;;;;;;;;;5037961;28;20038;-69
2022/09/26 06:00:18;;;;;;;13.40;2.50;;;;;;;;;;5037438;28;20040;-69
2022/09/26 06:02:44;;;;;;;;;;;;;;;;;;5045038;28;20381;-69
2022/09/26 06:05:10;;;;;;;16.17;2.65;;;;;;;;;;5042603;28;20355;-69
2022/09/26 06:07:36;;;;;;;;;;;;;;;;;;5042831;28;20033;-69
2022/09/26 06:10:05;;;;;;;9.60;3.10;;;;;;;;;;5045040;28;19923;-69
2022/09/26 06:12:33;;;;;;;10.35;2.53;;;;;;;;;;5040521;28;20641;-70
2022/09/26 06:14:59;;;;;;;12.65;2.55;;;;;;;;;;5045516;28;20059;-69
2022/09/26 06:17:25;;;;;;;14.23;2.55;;;;;;;;;;5043285;28;20086;-70
2022/09/26 06:19:52;;;;;;;12.63;3.03;;;;;;;;;;5043485;28;20045;-68
2022/09/26 06:22:17;;;;;;;;;;;;;;;;;;5042471;28;20460;-69
2022/09/26 06:24:44;;;;;;;12.25;2.95;;;;;;;;;;5043620;28;20343;-69
2022/09/26 06:27:09;;;;;;;;;;;;;;;;;;5044811;28;20028;-70
2022/09/26 06:29:36;;;;;;;12.50;2.80;;;;;;;;;;5043600;28;20269;-69
2022/09/26 06:32:02;;;;;;;12.32;2.70;;;;;;;;;;5044409;28;20154;-69
2022/09/26 06:34:29;;;;;;;12.10;2.85;;;;;;;;;;5037671;28;20332;-69
2022/09/26 06:36:54;;;;;;;;;;;;;;;;;;5043077;28;20036;-69
2022/09/26 06:39:21;;;;;;;10.88;2.53;;;;;;;;;;5040044;28;20443;-69
2022/09/26 06:41:47;;;;;;;10.50;2.30;;;;;;;;;;5040807;28;20119;-69
2022/09/26 06:44:13;;;;;;;;;;;;;;;;;;5037097;28;20121;-68
2022/09/26 06:46:39;;;;;;;13.02;2.42;;;;;;;;;;5041486;28;19912;-70
2022/09/26 06:49:05;;;;;;;11.10;2.70;;;;;;;;;;5044124;28;20059;-69
2022/09/26 06:51:31;;;;;;;12.90;2.70;;;;;;;;;;5037428;28;20541;-68
2022/09/26 06:53:59;;;;;;;;;;;;;;;;;;5045255;28;20059;-68
2022/09/26 06:56:25;;;;;;;9.20;2.22;;;;;;;;;;5037703;28;19912;-69
2022/09/26 06:58:51;;;;;;;12.65;3.30;;;;;;;;;;5045477;28;20033;-68
2022/09/26 07:01:17;;;;;;;;;;;;;;;;;;5034939;28;20028;-72
2022/09/26 07:03:44;;;;;;;13.38;2.65;;;;;;;;;;5041671;28;19927;-69
2022/09/26 07:06:09;;;;;;;;;;;;;;;;;;5039570;28;20575;-69
2022/09/26 07:08:36;;;;;;;12.10;2.78;;;;;;;;;;5039129;28;19913;-69
2022/09/26 07:11:03;;;;;;;13.77;2.65;;;;;;;;;;5040015;28;20036;-69
2022/09/26 07:13:29;;;;;;;13.57;2.70;;;;;;;;;;5041257;28;20490;-69
2022/09/26 07:15:55;;;;;;;;;;;;;;;;;;5041431;28;20029;-69
2022/09/26 07:18:21;;;;;;;10.73;2.20;;;;;;;;;;5041347;28;19957;-69
2022/09/26 07:20:47;;;;;;;;;;;;;;;;;;5044154;28;20101;-69
2022/09/26 07:23:15;;;;;;;8.07;1.92;;;;;;;;;;5038434;28;19913;-70
2022/09/26 07:25:45;;;;;;;13.25;2.60;;;;;;;;;;5040998;28;20490;-69
2022/09/26 07:28:11;;;;;;;16.58;2.38;;;;;;;;;;5037825;28;20042;-69
2022/09/26 07:30:37;;;;;;;12.60;2.20;;;;;;;;;;5041315;28;20125;-69
2022/09/26 07:33:03;;;;;;;;;;;;;;;;;;5041049;28;20032;-70
2022/09/26 07:35:34;;;;;;;9.05;2.15;;;;;;;;;;5041657;28;19919;-69
2022/09/26 07:38:00;;;;;;;11.07;2.38;;;;;;;;;;5041058;28;20038;-69
2022/09/26 07:40:26;;;;;;;;;;;;;;;;;;5040653;28;20032;-69
2022/09/26 07:42:52;;;;;;;13.52;2.13;;;;;;;;;;5043204;28;19974;-69
2022/09/26 07:50:10;;;;;;;12.45;2.80;;;;;;;;;;5040587;28;20028;-69
2022/09/26 07:50:56;;;;;;;12.10;2.33;;;;;;;;;;5043563;28;20379;-69
2022/09/26 07:53:23;;;;;;;11.63;2.47;;;;;;;;;;5039847;28;20395;-69
2022/09/26 07:56:05;;;;;;;14.20;2.30;;;;;;;;;;5041538;28;20396;-69
2022/09/26 07:58:40;;;;;;;12.43;2.28;;;;;;;;;;5039135;28;20040;-69
2022/09/26 08:01:09;;;;;;;8.70;1.83;;;;;;;;;;5038132;28;20036;-69
2022/09/26 08:03:35;;;;;;;10.90;1.85;;;;;;;;;;5038810;28;20016;-71
2022/09/26 08:06:02;;;;;;;10.52;2.03;;;;;;;;;;5040772;28;20024;-71
2022/09/26 08:08:29;;;;;;;9.70;1.92;;;;;;;;;;5038147;28;20466;-71
2022/09/26 08:10:56;;;;;;;13.50;2.45;;;;;;;;;;5036881;28;20051;-64
2022/09/26 08:13:23;;;;;;;11.48;2.08;;;;;;;;;;5041011;28;20107;-65
2022/09/26 08:15:49;;;;;;;8.32;1.80;;;;;;;;;;5044577;28;20188;-71
2022/09/26 08:18:16;;;;;;;12.77;2.00;;;;;;;;;;5042692;28;20052;-69
2022/09/26 08:20:46;;;;;;;9.60;1.88;;;;;;;;;;5044601;28;20024;-70
2022/09/26 08:23:13;;;;;;;10.95;2.22;;;;;;;;;;5037517;28;20029;-69
2022/09/26 08:25:39;;;;;;;11.13;1.80;;;;;;;;;;5038431;28;20510;-70
2022/09/26 08:28:06;;;;;;;12.57;2.20;;;;;;;;;;5037417;28;20040;-69
2022/09/26 08:30:33;;;;;;;9.48;1.83;;;;;;;;;;5040148;28;20098;-70
2022/09/26 08:33:00;;;;;;;8.63;1.95;;;;;;;;;;5043666;28;20091;-68
2022/09/26 08:35:27;;;;;;;11.65;2.00;;;;;;;;;;5038640;28;20035;-70
2022/09/26 08:37:53;;;;;;;10.57;1.73;;;;;;;;;;5039856;28;20753;-68
2022/09/26 08:40:22;;;;;;;9.93;1.83;;;;;;;;;;5033423;28;20120;-68
2022/09/26 08:43:03;;;;;;;9.55;1.80;;;;;;;;;;5039284;28;20039;-69
2022/09/26 08:48:29;;;;;;;9.90;1.85;;;;;;;;;;5038944;28;20043;-67
2022/09/26 08:51:24;;;;;;;8.02;1.88;;;;;;;;;;5042857;28;20145;-67
2022/09/26 08:54:20;;;;;;;8.70;1.60;;;;;;;;;;5039559;28;20221;-69
2022/09/26 08:56:49;;;;;;;7.88;1.52;;;;;;;;;;4962487;28;20042;-68
2022/09/26 08:59:38;;;;;;;15.18;2.10;;;;;;;;;;4977951;28;20048;-66
2022/09/26 09:02:10;;;;;;;10.40;2.10;;;;;;;;;;4973682;28;20535;-66
2022/09/26 09:04:36;;;;;;;11.73;2.00;;;;;;;;;;4982088;28;20101;-67
2022/09/26 09:07:11;;;;;;;9.48;1.75;;;;;;;;;;4981010;28;20031;-67
2022/09/26 09:09:37;;;;;;;7.65;1.75;;;;;;;;;;4978556;28;20144;-68
2022/09/26 09:12:07;;;;;;;9.25;2.05;;;;;;;;;;4981261;28;20037;-68
2022/09/26 09:14:42;;;;;;;10.57;2.13;;;;;;;;;;4976612;28;20061;-67
2022/09/26 09:17:08;;;;;;;10.85;1.83;;;;;;;;;;4978095;28;20125;-68
2022/09/26 09:19:40;;;;;;;6.20;1.50;;;;;;;;;;4974364;28;20042;-67
2022/09/26 09:22:25;;;;;;;8.00;1.52;;;;;;;;;;4975888;28;20065;-69
2022/09/26 09:25:24;;;;;;;9.70;1.60;;;;;;;;;;4978896;28;20323;-67
2022/09/26 09:28:02;;;;;;;10.20;1.65;;;;;;;;;;4938164;28;20287;-67
2022/09/26 09:30:46;;;;;;;8.38;1.77;;;;;;;;;;4923156;28;20395;-67
2022/09/26 09:33:23;;;;;;;7.90;1.55;;;;;;;;;;4933670;28;20073;-66
2022/09/26 09:35:51;;;;;;;10.30;1.70;;;;;;;;;;4960813;28;20038;-65
2022/09/26 09:38:20;;;;;;;13.60;2.25;;;;;;;;;;4959024;28;20204;-67
2022/09/26 09:41:05;;;;;;;8.98;1.73;;;;;;;;;;4947054;28;20031;-67
2022/09/26 09:43:40;;;;;;;8.55;1.77;;;;;;;;;;4961226;28;21284;-66
2022/09/26 09:46:14;;;;;;;7.28;1.60;;;;;;;;;;4948701;28;20401;-66
2022/09/26 09:48:40;;;;;;;6.78;1.63;;;;;;;;;;4964854;28;20037;-66
2022/09/26 09:51:18;;;;;;;6.32;1.58;;;;;;;;;;4958990;28;20112;-67
2022/09/26 09:53:55;;;;;;;11.60;1.90;;;;;;;;;;4964052;28;20038;-67
2022/09/26 09:56:28;;;;;;;8.02;1.75;;;;;;;;;;4958929;28;20603;-67
2022/09/26 09:58:54;;;;;;;9.65;1.80;;;;;;;;;;4964615;28;20109;-67
2022/09/26 10:01:20;;;;;;;5.78;1.45;;;;;;;;;;4960931;28;20762;-67
2022/09/26 10:03:54;;;;;;;9.35;1.92;;;;;;;;;;5011384;28;20043;-68
2022/09/26 10:06:21;;;;;;;8.80;1.90;;;;;;;;;;5041814;28;20020;-67
2022/09/26 10:08:49;;;;;;;9.45;2.00;;;;;;;;;;5044526;28;20410;-67
2022/09/26 10:11:22;;;;;;;10.80;2.03;;;;;;;;;;5039280;28;20992;-67
2022/09/26 10:13:54;;;;;;;9.63;1.92;;;;;;;;;;5042109;28;20394;-67
2022/09/26 10:16:20;;;;;;;12.45;1.90;;;;;;;;;;5040463;28;20547;-67
2022/09/26 10:18:59;;;;;;;12.45;2.25;;;;;;;;;;5042114;28;20045;-67
2022/09/26 10:21:38;;;;;;;6.28;1.20;;;;;;;;;;5038981;28;20526;-66
2022/09/26 10:24:05;;;;;;;8.52;1.60;;;;;;;;;;5045008;28;20339;-67
2022/09/26 10:26:36;;;;;;;10.15;2.22;;;;;;;;;;5043110;28;20123;-68
2022/09/26 10:29:07;;;;;;;10.15;1.77;;;;;;;;;;5044607;28;20081;-67
2022/09/26 10:31:41;;;;;;;10.05;2.20;;;;;;;;;;5039421;28;20041;-67
2022/09/26 10:34:20;;;;;;;7.28;1.70;;;;;;;;;;5040641;28;20555;-67
2022/09/26 10:36:46;;;;;;;8.05;1.50;;;;;;;;;;5044614;28;20562;-67
2022/09/26 10:42:13;;;;;;;10.10;2.13;;;;;;;;;;5045811;28;20048;-67
2022/09/26 10:44:40;;;;;;;11.30;1.85;;;;;;;;;;5043784;28;20492;-66
2022/09/26 10:47:07;;;;;;;8.25;1.70;;;;;;;;;;5039965;28;20497;-67
2022/09/26 10:49:49;;;;;;;8.30;1.88;;;;;;;;;;5041461;28;20029;-67
2022/09/26 10:52:22;;;;;;;9.32;1.73;;;;;;;;;;5037262;28;20036;-67
2022/09/26 10:55:04;;;;;;;7.00;1.55;;;;;;;;;;5039378;28;20683;-67
2022/09/26 10:57:36;;;;;;;7.47;1.50;;;;;;;;;;5039661;28;20114;-67
2022/09/26 11:00:05;;;;;;;9.45;1.40;;;;;;;;;;5038969;28;20046;-67
2022/09/26 11:02:32;;;;;;;7.68;1.30;;;;;;;;;;5033853;28;20028;-66
2022/09/26 11:07:46;;;;;;;7.22;1.40;;;;;;;;;;5040229;28;20067;-68
2022/09/26 11:10:15;;;;;;;8.80;1.60;;;;;;;;;;5034654;28;20017;-67
2022/09/26 11:12:59;;;;;;;6.32;1.58;;;;;;;;;;5043629;28;20091;-67
2022/09/26 11:15:27;;;;;;;8.80;1.55;;;;;;;;;;5036798;28;20035;-67
2022/09/26 11:17:54;;;;;;;7.32;1.55;;;;;;;;;;5040725;28;20106;-68
2022/09/26 11:20:43;;;;;;;8.50;1.85;;;;;;;;;;5039561;28;20020;-67
2022/09/26 11:23:31;;;;;;;11.15;1.85;;;;;;;;;;5039333;28;20044;-68
2022/09/26 11:26:09;;;;;;;10.18;1.70;;;;;;;;;;5042202;28;20020;-68
2022/09/26 11:28:46;;;;;;;8.70;1.83;;;;;;;;;;5036912;28;20472;-68
2022/09/26 11:31:19;;;;;;;13.05;2.00;;;;;;;;;;5035191;28;20038;-67
2022/09/26 11:33:45;;;;;;;8.50;1.75;;;;;;;;;;5041107;28;20596;-67
2022/09/26 11:36:22;;;;;;;9.55;2.00;;;;;;;;;;5038712;28;20462;-67
2022/09/26 11:38:56;;;;;;;9.50;1.98;;;;;;;;;;5042807;28;20435;-68
2022/09/26 11:41:35;;;;;;;7.25;1.83;;;;;;;;;;5037741;28;20025;-68
2022/09/26 11:44:20;;;;;;;7.88;1.70;;;;;;;;;;5041907;28;20090;-68
2022/09/26 11:47:04;;;;;;;10.38;1.85;;;;;;;;;;5039684;28;20031;-68
2022/09/26 11:49:49;;;;;;;7.90;1.65;;;;;;;;;;5037257;28;22559;-67
2022/09/26 11:52:18;;;;;;;6.47;1.58;;;;;;;;;;5039362;28;20307;-66
2022/09/26 11:54:45;;;;;;;7.82;1.65;;;;;;;;;;5039953;28;20385;-68
2022/09/26 11:57:20;;;;;;;8.52;1.60;;;;;;;;;;5040879;28;20033;-67
2022/09/26 11:59:46;;;;;;;6.93;1.63;;;;;;;;;;5041161;28;20476;-67
2022/09/26 12:02:14;;;;;;;8.25;1.50;;;;;;;;;;5039482;28;20024;-68
2022/09/26 12:04:56;;;;;;;5.72;1.20;;;;;;;;;;5044054;28;20108;-70
2022/09/26 12:07:31;;;;;;;6.82;1.33;;;;;;;;;;5032201;28;20020;-70
2022/09/26 12:10:00;;;;;;;10.70;1.92;;;;;;;;;;5041330;28;20044;-70
2022/09/26 12:12:27;;;;;;;11.93;1.90;;;;;;;;;;5039648;28;20677;-70
2022/09/26 12:14:53;;;;;;;6.43;1.50;;;;;;;;;;5032988;28;20901;-69
2022/09/26 12:17:35;;;;;;;7.78;1.70;;;;;;;;;;5037379;28;20174;-69
2022/09/26 12:20:13;;;;;;;7.13;1.42;;;;;;;;;;5040923;28;20036;-67
2022/09/26 12:22:42;;;;;;;8.95;1.65;;;;;;;;;;5043774;28;20037;-67
2022/09/26 12:25:09;;;;;;;5.20;1.30;;;;;;;;;;5036855;28;20035;-67
2022/09/26 12:27:48;;;;;;;8.02;1.50;;;;;;;;;;5038395;28;20406;-66
2022/09/26 12:30:24;;;;;;;8.25;1.83;;;;;;;;;;5038562;28;20391;-67
2022/09/26 12:33:03;;;;;;;6.25;1.30;;;;;;;;;;5039208;28;20066;-67
2022/09/26 12:35:35;;;;;;;6.53;1.50;;;;;;;;;;5038310;28;20442;-66
2022/09/26 12:38:04;;;;;;;7.45;1.20;;;;;;;;;;5037862;28;20306;-66
2022/09/26 12:40:48;;;;;;;5.38;1.40;;;;;;;;;;5037879;28;22887;-68
2022/09/26 12:43:14;;;;;;;7.65;1.48;;;;;;;;;;5036749;28;20025;-67
2022/09/26 12:46:06;;;;;;;6.40;1.20;;;;;;;;;;5038398;28;20393;-67
2022/09/26 12:48:52;;;;;;;5.70;1.50;;;;;;;;;;5035961;28;20098;-67
2022/09/26 12:51:36;;;;;;;7.38;1.60;;;;;;;;;;5036984;28;20141;-67
2022/09/26 12:54:21;;;;;;;7.30;1.52;;;;;;;;;;5037895;28;20036;-67
2022/09/26 12:56:58;;;;;;;7.75;1.55;;;;;;;;;;5039841;28;20041;-67
2022/09/26 12:59:43;;;;;;;7.30;1.50;;;;;;;;;;5038915;28;20083;-67
2022/09/26 13:02:32;;;;;;;8.82;1.70;;;;;;;;;;5033149;28;20575;-67
2022/09/26 13:04:58;;;;;;;5.63;1.40;;;;;;;;;;5043386;28;20024;-67
2022/09/26 13:07:43;;;;;;;8.75;1.60;;;;;;;;;;5040315;28;20074;-68
2022/09/26 13:10:25;;;;;;;7.03;1.33;;;;;;;;;;5042132;28;20083;-67
2022/09/26 13:13:04;;;;;;;7.65;1.58;;;;;;;;;;5044333;28;20119;-67
2022/09/26 13:15:35;;;;;;;5.72;1.40;;;;;;;;;;5043744;28;20085;-68
2022/09/26 13:18:05;;;;;;;7.28;1.40;;;;;;;;;;5038889;28;20049;-68
2022/09/26 13:20:45;;;;;;;8.23;1.27;;;;;;;;;;5042623;28;20045;-68
2022/09/26 13:23:17;;;;;;;7.30;1.65;;;;;;;;;;5040777;28;20035;-64
2022/09/26 13:25:51;;;;;;;7.15;1.95;;;;;;;;;;5043704;28;20082;-66
2022/09/26 13:28:20;;;;;;;6.97;1.90;;;;;;;;;;5042369;28;20024;-69
2022/09/26 13:30:55;;;;;;;6.35;1.67;;;;;;;;;;5043658;28;20774;-68
2022/09/26 13:33:40;;;;;;;9.00;1.67;;;;;;;;;;5042984;28;20054;-68
2022/09/26 13:36:08;;;;;;;6.53;1.37;;;;;;;;;;5045675;28;20032;-69
2022/09/26 13:38:51;;;;;;;7.03;1.60;;;;;;;;;;5043558;28;20261;-67
2022/09/26 13:41:27;;;;;;;7.05;1.42;;;;;;;;;;5040814;28;20042;-67
2022/09/26 13:44:06;;;;;;;5.05;1.25;;;;;;;;;;5047755;28;20811;-68
2022/09/26 13:46:38;;;;;;;5.65;1.08;;;;;;;;;;5042383;28;20025;-68
2022/09/26 13:49:23;;;;;;;8.00;1.45;;;;;;;;;;5044544;28;20395;-67
2022/09/26 13:51:59;;;;;;;5.82;1.23;;;;;;;;;;5043140;28;20387;-68
2022/09/26 13:54:43;;;;;;;5.18;1.20;;;;;;;;;;5039333;28;20039;-67
2022/09/26 13:57:29;;;;;;;7.22;1.60;;;;;;;;;;5042655;28;20573;-67
2022/09/26 13:59:55;;;;;;;7.95;1.75;;;;;;;;;;5043783;28;20463;-67
2022/09/26 14:02:23;;;;;;;5.78;1.48;;;;;;;;;;5037507;28;20513;-67
2022/09/26 14:04:50;;;;;;;9.35;1.70;;;;;;;;;;5045299;28;20376;-67
2022/09/26 14:10:02;;;;;;;7.22;1.67;;;;;;;;;;5044104;28;20086;-66
2022/09/26 14:12:33;;;;;;;4.70;1.30;;;;;;;;;;5038671;28;20094;-66
2022/09/26 14:15:14;;;;;;;6.57;1.25;;;;;;;;;;5045742;28;20025;-68
2022/09/26 14:17:43;;;;;;;9.55;2.10;;;;;;;;;;5042266;28;20157;-68
2022/09/26 14:20:30;;;;;;;6.95;1.58;;;;;;;;;;5045311;28;20454;-68
2022/09/26 14:22:57;;;;;;;8.75;1.60;;;;;;;;;;5042593;28;20037;-68
2022/09/26 14:25:52;;;;;;;10.02;1.70;;;;;;;;;;5044009;28;20028;-66
2022/09/26 14:28:27;;;;;;;6.43;1.50;;;;;;;;;;5034832;28;20041;-68
2022/09/26 14:31:10;;;;;;;8.60;1.70;;;;;;;;;;5041748;28;20474;-66
2022/09/26 14:33:36;;;;;;;5.07;1.23;;;;;;;;;;5044508;28;20037;-68
2022/09/26 14:36:21;;;;;;;8.52;1.75;;;;;;;;;;5042368;28;20483;-67
2022/09/26 14:38:49;;;;;;;5.97;1.42;;;;;;;;;;5041071;28;20745;-69
2022/09/26 14:41:19;;;;;;;8.45;1.38;;;;;;;;;;5040847;28;20103;-68
2022/09/26 14:43:46;;;;;;;6.88;1.63;;;;;;;;;;5044421;28;20029;-67
2022/09/26 14:46:17;;;;;;;10.20;1.33;;;;;;;;;;5040440;28;20506;-67
2022/09/26 14:48:44;;;;;;;6.95;1.50;;;;;;;;;;5040041;28;20464;-67
2022/09/26 14:51:10;;;;;;;9.95;1.67;;;;;;;;;;5040088;28;20475;-69
2022/09/26 14:53:45;;;;;;;5.95;1.60;;;;;;;;;;5037822;28;20089;-67
2022/09/26 14:56:14;;;;;;;8.40;1.80;;;;;;;;;;5040836;28;20090;-67
2022/09/26 14:58:45;;;;;;;6.93;1.45;;;;;;;;;;5045901;28;20023;-68
2022/09/26 15:01:12;;;;;;;7.50;1.55;;;;;;;;;;5041673;28;20058;-67
2022/09/26 15:03:39;;;;;;;8.18;1.45;;;;;;;;;;5042324;28;20593;-67
2022/09/26 15:06:07;;;;;;;8.88;1.55;;;;;;;;;;5040706;28;20025;-67
2022/09/26 15:08:35;;;;;;;6.45;1.33;;;;;;;;;;5036139;28;20024;-67
2022/09/26 15:11:02;;;;;;;7.47;1.45;;;;;;;;;;5042125;28;20441;-67
2022/09/26 15:13:38;;;;;;;7.47;1.77;;;;;;;;;;5036638;28;20465;-67
2022/09/26 15:16:15;;;;;;;7.45;1.70;;;;;;;;;;5041522;28;20033;-67
2022/09/26 15:18:43;;;;;;;8.00;1.90;;;;;;;;;;5041085;28;20059;-67
2022/09/26 15:21:11;;;;;;;8.90;2.28;;;;;;;;;;5043558;28;20071;-66
2022/09/26 15:23:51;;;;;;;8.15;1.75;;;;;;;;;;5042538;28;20411;-66
2022/09/26 15:26:19;;;;;;;7.68;1.65;;;;;;;;;;5038906;28;20544;-66
2022/09/26 15:28:47;;;;;;;8.93;1.70;;;;;;;;;;5038220;28;20590;-66